createdAt,value
2022-12-08T00:01:16.553Z,14.90
2022-12-08T00:03:43.315Z,18.83
2022-12-08T00:06:40.333Z,19.42
2022-12-08T00:09:22.091Z,19.83
2022-12-08T00:11:54.034Z,18.25
2022-12-08T00:14:22.842Z,21.38
2022-12-08T00:16:49.044Z,20.52
2022-12-08T00:19:15.213Z,19.15
2022-12-08T00:21:41.349Z,20.45
2022-12-08T00:24:07.740Z,20.13
2022-12-08T00:26:33.850Z,18.33
2022-12-08T00:29:00.478Z,19.90
2022-12-08T00:31:26.644Z,17.67
2022-12-08T00:33:52.798Z,23.35
2022-12-08T00:36:18.956Z,18.65
2022-12-08T00:38:47.220Z,23.80
2022-12-08T00:41:39.969Z,19.10
2022-12-08T00:44:08.223Z,18.80
2022-12-08T00:46:34.395Z,18.83
2022-12-08T00:49:00.639Z,21.70
2022-12-08T00:51:26.755Z,28.30
2022-12-08T00:53:52.887Z,20.45
2022-12-08T00:56:19.010Z,24.17
2022-12-08T00:58:45.133Z,21.90
2022-12-08T01:01:12.632Z,25.75
2022-12-08T01:03:38.827Z,25.02
2022-12-08T01:06:05.945Z,23.77
2022-12-08T01:08:32.903Z,25.40
2022-12-08T01:11:14.161Z,25.58
2022-12-08T01:13:40.630Z,22.45
2022-12-08T01:16:06.776Z,24.30
2022-12-08T01:18:33.573Z,26.17
2022-12-08T01:21:07.261Z,27.48
2022-12-08T01:23:34.431Z,21.40
2022-12-08T01:26:08.522Z,25.52
2022-12-08T01:28:34.650Z,24.80
2022-12-08T01:31:01.915Z,28.23
2022-12-08T01:33:29.664Z,26.73
2022-12-08T01:35:56.375Z,30.92
2022-12-08T01:38:22.868Z,26.90
2022-12-08T01:40:49.446Z,27.67
2022-12-08T01:43:20.954Z,25.55
2022-12-08T01:45:47.810Z,24.35
2022-12-08T01:48:27.246Z,24.50
2022-12-08T01:50:55.653Z,24.90
2022-12-08T01:53:30.289Z,21.85
2022-12-08T01:56:00.473Z,26.15
2022-12-08T01:58:36.219Z,27.67
2022-12-08T02:01:02.552Z,28.45
2022-12-08T02:03:34.146Z,22.23
2022-12-08T02:06:00.261Z,21.75
2022-12-08T02:08:27.982Z,26.90
2022-12-08T02:10:54.118Z,27.33
2022-12-08T02:13:22.380Z,24.75
2022-12-08T02:16:10.216Z,25.10
2022-12-08T02:19:29.587Z,23.90
2022-12-08T02:22:09.945Z,20.48
2022-12-08T02:25:15.336Z,24.90
2022-12-08T02:27:56.268Z,27.20
2022-12-08T02:30:41.831Z,19.55
2022-12-08T02:33:38.232Z,20.58
2022-12-08T02:36:19.838Z,21.52
2022-12-08T02:38:56.308Z,18.48
2022-12-08T02:42:01.494Z,19.85
2022-12-08T02:44:37.398Z,18.13
2022-12-08T02:47:10.240Z,22.85
2022-12-08T02:49:36.580Z,16.88
2022-12-08T02:52:12.426Z,20.38
2022-12-08T02:54:50.557Z,22.38
2022-12-08T02:57:38.392Z,22.05
2022-12-08T03:00:11.359Z,17.92
2022-12-08T03:02:43.603Z,22.17
2022-12-08T03:05:44.472Z,23.80
2022-12-08T03:08:17.179Z,19.77
2022-12-08T03:10:52.456Z,18.85
2022-12-08T03:13:28.302Z,21.77
2022-12-08T03:15:55.855Z,21.80
2022-12-08T03:18:27.628Z,18.58
2022-12-08T03:20:53.780Z,19.58
2022-12-08T03:23:22.195Z,17.17
2022-12-08T03:26:08.578Z,16.25
2022-12-08T03:28:34.970Z,16.65
2022-12-08T03:31:06.377Z,17.55
2022-12-08T03:33:37.608Z,15.65
2022-12-08T03:36:07.798Z,14.57
2022-12-08T03:38:41.449Z,14.05
2022-12-08T03:41:19.871Z,15.02
2022-12-08T03:43:53.388Z,13.95
2022-12-08T03:48:46.926Z,12.52
2022-12-08T03:51:13.192Z,11.57
2022-12-08T03:53:39.319Z,12.82
2022-12-08T03:56:13.827Z,12.02
2022-12-08T03:58:39.971Z,12.27
2022-12-08T04:01:06.089Z,12.20
